EZY9XD EGPF-EGSS
Flight info
| Callsign | EZY9XD |
|---|---|
| Flight time | N/A |
| Altitude | 37000 |
| Route | NORBO T256 ROVLA UT256 DCS UL612 LISTO |
| Aircraft | A320/M-SDE3FGHIRWY/LB1 |
Departure
| Time | 2026-01-18 13:29 |
|---|---|
| Airport | Glasgow Airport (EGPF) |
Arrival
| Time | N/A |
|---|---|
| Airport | London Stansted Airport (EGSS) |
| Time | Latitude | Longitude | Altitude | Speed | Heading |
|---|---|---|---|---|---|
| 2026-01-18 13:08 | 55.86562 | -4.43877 | 31 ft | 0 kts | 62° |
| 2026-01-18 13:21 | 55.86553 | -4.43908 | 31 ft | 3 kts | 58° |
| 2026-01-18 13:21 | 55.86542 | -4.43938 | 30 ft | 3 kts | 51° |
| 2026-01-18 13:22 | 55.86500 | -4.43981 | 30 ft | 1 kts | 332° |
| 2026-01-18 13:24 | 55.86507 | -4.43986 | 29 ft | 6 kts | 337° |
| 2026-01-18 13:25 | 55.86531 | -4.44119 | 31 ft | 10 kts | 235° |
| 2026-01-18 13:25 | 55.86444 | -4.44294 | 32 ft | 11 kts | 227° |
| 2026-01-18 13:26 | 55.86344 | -4.44478 | 31 ft | 12 kts | 225° |
| 2026-01-18 13:26 | 55.86261 | -4.44725 | 30 ft | 11 kts | 299° |
| 2026-01-18 13:26 | 55.86283 | -4.44764 | 31 ft | 0 kts | 317° |
| 2026-01-18 13:27 | 55.86305 | -4.44801 | 32 ft | 13 kts | 316° |
| 2026-01-18 13:27 | 55.86369 | -4.44855 | 33 ft | 10 kts | 14° |
| 2026-01-18 13:28 | 55.86919 | -4.43844 | 31 ft | 137 kts | 46° |
| 2026-01-18 13:29 | 55.88362 | -4.40908 | 1317 ft | 158 kts | 51° |
| 2026-01-18 13:29 | 55.89829 | -4.38080 | 1823 ft | 162 kts | 49° |
| 2026-01-18 13:30 | 55.91487 | -4.35117 | 2139 ft | 182 kts | 49° |
| 2026-01-18 13:30 | 55.93729 | -4.31945 | 2878 ft | 236 kts | 19° |
| 2026-01-18 13:31 | 55.97129 | -4.33065 | 4061 ft | 273 kts | 316° |
| 2026-01-18 13:31 | 55.98393 | -4.39084 | 5734 ft | 269 kts | 256° |
| 2026-01-18 13:31 | 55.97759 | -4.42165 | 5948 ft | 264 kts | 241° |
| 2026-01-18 13:32 | 55.97124 | -4.44538 | 6002 ft | 263 kts | 240° |
| 2026-01-18 13:33 | 55.95973 | -4.48740 | 5997 ft | 262 kts | 240° |
| 2026-01-18 13:34 | 55.93678 | -4.53631 | 6024 ft | 257 kts | 221° |
| 2026-01-18 13:34 | 55.91154 | -4.58047 | 6860 ft | 256 kts | 221° |
| 2026-01-18 13:35 | 55.87292 | -4.64790 | 9159 ft | 261 kts | 216° |
| 2026-01-18 13:35 | 55.84260 | -4.68401 | 10680 ft | 267 kts | 211° |
| 2026-01-18 13:36 | 55.79289 | -4.73574 | 12976 ft | 283 kts | 198° |
| 2026-01-18 13:37 | 55.75245 | -4.74753 | 13928 ft | 313 kts | 184° |
| 2026-01-18 13:37 | 55.73033 | -4.74946 | 14385 ft | 322 kts | 184° |
| 2026-01-18 13:37 | 55.68528 | -4.75350 | 15840 ft | 326 kts | 184° |
| 2026-01-18 13:38 | 55.63997 | -4.75785 | 17498 ft | 324 kts | 183° |
| 2026-01-18 13:39 | 55.57562 | -4.73005 | 20024 ft | 320 kts | 152° |
| 2026-01-18 13:39 | 55.54068 | -4.68284 | 21670 ft | 313 kts | 142° |
| 2026-01-18 13:40 | 55.52346 | -4.65810 | 22098 ft | 322 kts | 142° |
| 2026-01-18 13:40 | 55.46842 | -4.57947 | 23071 ft | 357 kts | 141° |
| 2026-01-18 13:41 | 55.42859 | -4.52281 | 23676 ft | 379 kts | 141° |
| 2026-01-18 13:41 | 55.40773 | -4.49328 | 23935 ft | 389 kts | 141° |
| 2026-01-18 13:42 | 55.34226 | -4.39812 | 24481 ft | 426 kts | 141° |
| 2026-01-18 13:42 | 55.29666 | -4.32986 | 24955 ft | 433 kts | 141° |
| 2026-01-18 13:43 | 55.25057 | -4.26168 | 25925 ft | 433 kts | 140° |
| 2026-01-18 13:45 | 55.07287 | -3.97597 | 30175 ft | 434 kts | 130° |
| 2026-01-18 13:47 | 54.90802 | -3.67547 | 34145 ft | 422 kts | 130° |
| 2026-01-18 13:49 | 54.76494 | -3.41758 | 36293 ft | 424 kts | 131° |
| 2026-01-18 13:50 | 54.56280 | -3.22135 | 37040 ft | 462 kts | 156° |
| 2026-01-18 13:53 | 54.28711 | -3.01657 | 37010 ft | 485 kts | 157° |
| 2026-01-18 13:55 | 54.03902 | -2.83524 | 37002 ft | 485 kts | 157° |
| 2026-01-18 13:57 | 53.79030 | -2.65566 | 37004 ft | 486 kts | 157° |
| 2026-01-18 13:58 | 53.57365 | -2.50112 | 37025 ft | 479 kts | 157° |
| 2026-01-18 14:01 | 53.29824 | -2.30696 | 37027 ft | 476 kts | 158° |
| 2026-01-18 14:03 | 53.06518 | -2.10329 | 37001 ft | 475 kts | 143° |
| 2026-01-18 14:05 | 52.85358 | -1.84786 | 34863 ft | 464 kts | 145° |
| 2026-01-18 14:06 | 52.66751 | -1.65102 | 31027 ft | 437 kts | 156° |
| 2026-01-18 14:09 | 52.43464 | -1.45220 | 24670 ft | 401 kts | 158° |
| 2026-01-18 14:09 | 52.38567 | -1.41068 | 23157 ft | 392 kts | 158° |
| 2026-01-18 14:10 | 52.33780 | -1.37015 | 21529 ft | 383 kts | 158° |
| 2026-01-18 14:10 | 52.31428 | -1.35027 | 20751 ft | 378 kts | 158° |
| 2026-01-18 14:10 | 52.26827 | -1.31008 | 19287 ft | 372 kts | 155° |
| 2026-01-18 14:11 | 52.22385 | -1.26771 | 18104 ft | 367 kts | 154° |
| 2026-01-18 14:11 | 52.18018 | -1.22576 | 16921 ft | 361 kts | 154° |
| 2026-01-18 14:12 | 52.11565 | -1.16486 | 15826 ft | 355 kts | 154° |
| 2026-01-18 14:13 | 52.07313 | -1.12511 | 14975 ft | 349 kts | 154° |
| 2026-01-18 14:13 | 52.05232 | -1.10569 | 14560 ft | 347 kts | 154° |
| 2026-01-18 14:13 | 52.01679 | -1.05406 | 13938 ft | 357 kts | 116° |
| 2026-01-18 14:14 | 52.00513 | -0.97418 | 12958 ft | 364 kts | 109° |
| 2026-01-18 14:14 | 51.99498 | -0.89386 | 12119 ft | 355 kts | 99° |
| 2026-01-18 14:15 | 51.99414 | -0.81299 | 11271 ft | 364 kts | 93° |
| 2026-01-18 14:15 | 51.99578 | -0.73097 | 10526 ft | 361 kts | 93° |
| 2026-01-18 14:16 | 51.99664 | -0.61052 | 10060 ft | 332 kts | 95° |
| 2026-01-18 14:16 | 51.99666 | -0.57486 | 10078 ft | 303 kts | 95° |
| 2026-01-18 14:17 | 51.99615 | -0.47506 | 10080 ft | 294 kts | 96° |